sensor_id;sensor_type;location;lat;lon;timestamp;temperature;humidity
20442;DHT22;10380;52.102;20.614;2023-04-16T00:01:39;10.10;99.90
20442;DHT22;10380;52.102;20.614;2023-04-16T00:04:06;10.10;99.90
20442;DHT22;10380;52.102;20.614;2023-04-16T00:06:34;10.10;99.90
20442;DHT22;10380;52.102;20.614;2023-04-16T00:09:01;10.10;99.90
20442;DHT22;10380;52.102;20.614;2023-04-16T00:11:27;10.10;99.90
20442;DHT22;10380;52.102;20.614;2023-04-16T00:13:54;10.10;99.90
20442;DHT22;10380;52.102;20.614;2023-04-16T00:16:21;10.10;99.90
20442;DHT22;10380;52.102;20.614;2023-04-16T00:18:48;10.10;99.90
20442;DHT22;10380;52.102;20.614;2023-04-16T00:21:15;10.10;99.90
20442;DHT22;10380;52.102;20.614;2023-04-16T00:23:42;10.10;99.90
20442;DHT22;10380;52.102;20.614;2023-04-16T00:26:08;10.10;99.90
20442;DHT22;10380;52.102;20.614;2023-04-16T00:28:36;10.10;99.90
20442;DHT22;10380;52.102;20.614;2023-04-16T00:31:04;10.10;99.90
20442;DHT22;10380;52.102;20.614;2023-04-16T00:33:31;10.10;99.90
20442;DHT22;10380;52.102;20.614;2023-04-16T00:35:58;10.10;99.90
20442;DHT22;10380;52.102;20.614;2023-04-16T00:38:25;10.10;99.90
20442;DHT22;10380;52.102;20.614;2023-04-16T00:40:55;10.10;99.90
20442;DHT22;10380;52.102;20.614;2023-04-16T00:43:25;10.00;99.90
20442;DHT22;10380;52.102;20.614;2023-04-16T00:45:55;10.10;99.90
20442;DHT22;10380;52.102;20.614;2023-04-16T00:48:26;10.10;99.90
20442;DHT22;10380;52.102;20.614;2023-04-16T00:50:54;10.10;99.90
20442;DHT22;10380;52.102;20.614;2023-04-16T00:53:21;10.10;99.90
20442;DHT22;10380;52.102;20.614;2023-04-16T00:55:50;10.10;99.90
20442;DHT22;10380;52.102;20.614;2023-04-16T00:58:17;10.10;99.90
20442;DHT22;10380;52.102;20.614;2023-04-16T01:00:44;10.10;99.90
20442;DHT22;10380;52.102;20.614;2023-04-16T01:03:11;10.10;99.90
20442;DHT22;10380;52.102;20.614;2023-04-16T01:05:38;10.00;99.90
20442;DHT22;10380;52.102;20.614;2023-04-16T01:08:06;10.10;99.90
20442;DHT22;10380;52.102;20.614;2023-04-16T01:10:33;10.10;99.90
20442;DHT22;10380;52.102;20.614;2023-04-16T01:12:59;10.10;99.90
20442;DHT22;10380;52.102;20.614;2023-04-16T01:15:26;10.10;99.90
20442;DHT22;10380;52.102;20.614;2023-04-16T01:17:53;10.10;99.90
20442;DHT22;10380;52.102;20.614;2023-04-16T01:20:20;10.00;99.90
20442;DHT22;10380;52.102;20.614;2023-04-16T01:22:47;10.00;99.90
20442;DHT22;10380;52.102;20.614;2023-04-16T01:25:15;10.00;99.90
20442;DHT22;10380;52.102;20.614;2023-04-16T01:27:43;10.00;99.90
20442;DHT22;10380;52.102;20.614;2023-04-16T01:30:11;9.90;99.90
20442;DHT22;10380;52.102;20.614;2023-04-16T01:32:37;9.90;99.90
20442;DHT22;10380;52.102;20.614;2023-04-16T01:35:04;9.90;99.90
20442;DHT22;10380;52.102;20.614;2023-04-16T01:37:32;9.90;99.90
20442;DHT22;10380;52.102;20.614;2023-04-16T01:39:59;9.90;99.90
20442;DHT22;10380;52.102;20.614;2023-04-16T01:42:26;9.90;99.90
20442;DHT22;10380;52.102;20.614;2023-04-16T01:44:53;9.80;99.90
20442;DHT22;10380;52.102;20.614;2023-04-16T01:47:20;9.80;99.90
20442;DHT22;10380;52.102;20.614;2023-04-16T01:49:48;9.80;99.90
20442;DHT22;10380;52.102;20.614;2023-04-16T01:52:15;9.80;99.90
20442;DHT22;10380;52.102;20.614;2023-04-16T01:54:42;9.80;99.90
20442;DHT22;10380;52.102;20.614;2023-04-16T01:57:08;9.80;99.90
20442;DHT22;10380;52.102;20.614;2023-04-16T01:59:35;9.80;99.90
20442;DHT22;10380;52.102;20.614;2023-04-16T02:02:11;9.80;99.90
20442;DHT22;10380;52.102;20.614;2023-04-16T02:04:40;9.80;99.90
20442;DHT22;10380;52.102;20.614;2023-04-16T02:07:07;9.70;99.90
20442;DHT22;10380;52.102;20.614;2023-04-16T02:09:36;9.70;99.90
20442;DHT22;10380;52.102;20.614;2023-04-16T02:12:04;9.70;99.90
20442;DHT22;10380;52.102;20.614;2023-04-16T02:14:31;9.70;99.90
20442;DHT22;10380;52.102;20.614;2023-04-16T02:16:59;9.70;99.90
20442;DHT22;10380;52.102;20.614;2023-04-16T02:19:26;9.70;99.90
20442;DHT22;10380;52.102;20.614;2023-04-16T02:21:53;9.70;99.90
20442;DHT22;10380;52.102;20.614;2023-04-16T02:24:20;9.70;99.90
20442;DHT22;10380;52.102;20.614;2023-04-16T02:26:47;9.70;99.90
20442;DHT22;10380;52.102;20.614;2023-04-16T02:29:14;9.70;99.90
20442;DHT22;10380;52.102;20.614;2023-04-16T02:31:42;9.70;99.90
20442;DHT22;10380;52.102;20.614;2023-04-16T02:34:09;9.70;99.90
20442;DHT22;10380;52.102;20.614;2023-04-16T02:36:35;9.70;99.90
20442;DHT22;10380;52.102;20.614;2023-04-16T02:39:03;9.70;99.90
20442;DHT22;10380;52.102;20.614;2023-04-16T02:41:30;9.70;99.90
20442;DHT22;10380;52.102;20.614;2023-04-16T02:43:57;9.70;99.90
20442;DHT22;10380;52.102;20.614;2023-04-16T02:46:24;9.70;99.90
20442;DHT22;10380;52.102;20.614;2023-04-16T02:48:51;9.70;99.90
20442;DHT22;10380;52.102;20.614;2023-04-16T02:51:18;9.70;99.90
20442;DHT22;10380;52.102;20.614;2023-04-16T02:53:46;9.70;99.90
20442;DHT22;10380;52.102;20.614;2023-04-16T02:56:13;9.70;99.90
20442;DHT22;10380;52.102;20.614;2023-04-16T02:58:39;9.70;99.90
20442;DHT22;10380;52.102;20.614;2023-04-16T03:01:06;9.70;99.90
20442;DHT22;10380;52.102;20.614;2023-04-16T03:03:33;9.70;99.90
20442;DHT22;10380;52.102;20.614;2023-04-16T03:06:00;9.60;99.90
20442;DHT22;10380;52.102;20.614;2023-04-16T03:08:27;9.60;99.90
20442;DHT22;10380;52.102;20.614;2023-04-16T03:10:54;9.60;99.90
20442;DHT22;10380;52.102;20.614;2023-04-16T03:13:21;9.60;99.90
20442;DHT22;10380;52.102;20.614;2023-04-16T03:15:48;9.60;99.90
20442;DHT22;10380;52.102;20.614;2023-04-16T03:18:16;9.60;99.90
20442;DHT22;10380;52.102;20.614;2023-04-16T03:20:43;9.60;99.90
20442;DHT22;10380;52.102;20.614;2023-04-16T03:23:10;9.60;99.90
20442;DHT22;10380;52.102;20.614;2023-04-16T03:25:37;9.60;99.90
20442;DHT22;10380;52.102;20.614;2023-04-16T03:28:06;9.60;99.90
20442;DHT22;10380;52.102;20.614;2023-04-16T03:30:34;9.60;99.90
20442;DHT22;10380;52.102;20.614;2023-04-16T03:33:01;9.60;99.90
20442;DHT22;10380;52.102;20.614;2023-04-16T03:35:28;9.70;99.90
20442;DHT22;10380;52.102;20.614;2023-04-16T03:37:54;9.60;99.90
20442;DHT22;10380;52.102;20.614;2023-04-16T03:40:21;9.60;99.90
20442;DHT22;10380;52.102;20.614;2023-04-16T03:42:48;9.60;99.90
20442;DHT22;10380;52.102;20.614;2023-04-16T03:45:15;9.60;99.90
20442;DHT22;10380;52.102;20.614;2023-04-16T03:47:42;9.60;99.90
20442;DHT22;10380;52.102;20.614;2023-04-16T03:50:09;9.60;99.90
20442;DHT22;10380;52.102;20.614;2023-04-16T03:52:37;9.60;99.90
20442;DHT22;10380;52.102;20.614;2023-04-16T03:55:04;9.60;99.90
20442;DHT22;10380;52.102;20.614;2023-04-16T03:57:32;9.60;99.90
20442;DHT22;10380;52.102;20.614;2023-04-16T03:59:58;9.60;99.90
20442;DHT22;10380;52.102;20.614;2023-04-16T04:02:25;9.60;99.90
20442;DHT22;10380;52.102;20.614;2023-04-16T04:04:52;9.60;99.90
20442;DHT22;10380;52.102;20.614;2023-04-16T04:07:20;9.60;99.90
20442;DHT22;10380;52.102;20.614;2023-04-16T04:09:46;9.60;99.90
20442;DHT22;10380;52.102;20.614;2023-04-16T04:12:13;9.60;99.90
20442;DHT22;10380;52.102;20.614;2023-04-16T04:14:40;9.60;99.90
20442;DHT22;10380;52.102;20.614;2023-04-16T04:17:07;9.60;99.90
20442;DHT22;10380;52.102;20.614;2023-04-16T04:19:34;9.60;99.90
20442;DHT22;10380;52.102;20.614;2023-04-16T04:22:04;9.60;99.90
20442;DHT22;10380;52.102;20.614;2023-04-16T04:24:31;9.70;99.90
20442;DHT22;10380;52.102;20.614;2023-04-16T04:26:58;9.60;99.90
20442;DHT22;10380;52.102;20.614;2023-04-16T04:29:24;9.70;99.90
20442;DHT22;10380;52.102;20.614;2023-04-16T04:31:51;9.70;99.90
20442;DHT22;10380;52.102;20.614;2023-04-16T04:34:19;9.70;99.90
20442;DHT22;10380;52.102;20.614;2023-04-16T04:36:46;9.70;99.90
20442;DHT22;10380;52.102;20.614;2023-04-16T04:39:13;9.70;99.90
20442;DHT22;10380;52.102;20.614;2023-04-16T04:41:40;9.70;99.90
20442;DHT22;10380;52.102;20.614;2023-04-16T04:44:06;9.80;99.90
20442;DHT22;10380;52.102;20.614;2023-04-16T04:46:33;9.80;99.90
20442;DHT22;10380;52.102;20.614;2023-04-16T04:49:00;9.90;99.90
20442;DHT22;10380;52.102;20.614;2023-04-16T04:51:27;9.90;99.90
20442;DHT22;10380;52.102;20.614;2023-04-16T04:53:55;9.90;99.90
20442;DHT22;10380;52.102;20.614;2023-04-16T04:56:23;10.00;99.90
20442;DHT22;10380;52.102;20.614;2023-04-16T04:58:50;10.00;99.90
20442;DHT22;10380;52.102;20.614;2023-04-16T05:01:17;10.10;99.90
20442;DHT22;10380;52.102;20.614;2023-04-16T05:03:43;10.10;99.90
20442;DHT22;10380;52.102;20.614;2023-04-16T05:06:11;10.10;99.90
20442;DHT22;10380;52.102;20.614;2023-04-16T05:08:38;10.20;99.90
20442;DHT22;10380;52.102;20.614;2023-04-16T05:11:05;10.20;99.90
20442;DHT22;10380;52.102;20.614;2023-04-16T05:13:32;10.20;99.90
20442;DHT22;10380;52.102;20.614;2023-04-16T05:15:59;10.30;99.90
20442;DHT22;10380;52.102;20.614;2023-04-16T05:18:26;10.30;99.90
20442;DHT22;10380;52.102;20.614;2023-04-16T05:20:53;10.40;99.90
20442;DHT22;10380;52.102;20.614;2023-04-16T05:23:20;10.40;99.90
20442;DHT22;10380;52.102;20.614;2023-04-16T05:25:47;10.40;99.90
20442;DHT22;10380;52.102;20.614;2023-04-16T05:28:14;10.40;99.90
20442;DHT22;10380;52.102;20.614;2023-04-16T05:30:40;10.50;99.90
20442;DHT22;10380;52.102;20.614;2023-04-16T05:33:07;10.50;99.90
20442;DHT22;10380;52.102;20.614;2023-04-16T05:35:34;10.60;99.90
20442;DHT22;10380;52.102;20.614;2023-04-16T05:38:01;10.60;99.90
20442;DHT22;10380;52.102;20.614;2023-04-16T05:40:30;10.60;99.90
20442;DHT22;10380;52.102;20.614;2023-04-16T05:42:57;10.60;99.90
20442;DHT22;10380;52.102;20.614;2023-04-16T05:45:24;10.60;99.90
20442;DHT22;10380;52.102;20.614;2023-04-16T05:47:53;10.60;99.90
20442;DHT22;10380;52.102;20.614;2023-04-16T05:50:20;10.60;99.90
20442;DHT22;10380;52.102;20.614;2023-04-16T05:52:47;10.70;99.90
20442;DHT22;10380;52.102;20.614;2023-04-16T05:55:14;10.70;99.90
20442;DHT22;10380;52.102;20.614;2023-04-16T05:57:42;10.70;99.90
20442;DHT22;10380;52.102;20.614;2023-04-16T06:00:09;10.80;99.90
20442;DHT22;10380;52.102;20.614;2023-04-16T06:02:37;10.70;99.90
20442;DHT22;10380;52.102;20.614;2023-04-16T06:05:04;10.80;99.90
20442;DHT22;10380;52.102;20.614;2023-04-16T06:07:31;10.80;99.90
20442;DHT22;10380;52.102;20.614;2023-04-16T06:09:58;10.90;99.90
20442;DHT22;10380;52.102;20.614;2023-04-16T06:12:24;10.90;99.90
20442;DHT22;10380;52.102;20.614;2023-04-16T06:14:51;10.90;99.90
20442;DHT22;10380;52.102;20.614;2023-04-16T06:17:18;10.90;99.90
20442;DHT22;10380;52.102;20.614;2023-04-16T06:19:46;10.90;99.90
20442;DHT22;10380;52.102;20.614;2023-04-16T06:22:13;11.00;99.90
20442;DHT22;10380;52.102;20.614;2023-04-16T06:24:40;11.00;99.90
20442;DHT22;10380;52.102;20.614;2023-04-16T06:27:08;11.10;99.90
20442;DHT22;10380;52.102;20.614;2023-04-16T06:29:35;11.10;99.90
20442;DHT22;10380;52.102;20.614;2023-04-16T06:32:07;11.10;99.90
20442;DHT22;10380;52.102;20.614;2023-04-16T06:34:34;11.20;99.90
20442;DHT22;10380;52.102;20.614;2023-04-16T06:37:01;11.30;99.90
20442;DHT22;10380;52.102;20.614;2023-04-16T06:39:28;11.30;99.90
20442;DHT22;10380;52.102;20.614;2023-04-16T06:41:55;11.40;99.90
20442;DHT22;10380;52.102;20.614;2023-04-16T06:44:22;11.40;99.90
20442;DHT22;10380;52.102;20.614;2023-04-16T06:46:49;11.50;99.90
20442;DHT22;10380;52.102;20.614;2023-04-16T06:49:16;11.50;99.90
20442;DHT22;10380;52.102;20.614;2023-04-16T06:51:43;11.60;99.90
20442;DHT22;10380;52.102;20.614;2023-04-16T06:54:10;11.60;99.90
20442;DHT22;10380;52.102;20.614;2023-04-16T06:56:37;11.60;99.90
20442;DHT22;10380;52.102;20.614;2023-04-16T06:59:04;11.60;99.90
20442;DHT22;10380;52.102;20.614;2023-04-16T07:01:31;11.70;99.90
20442;DHT22;10380;52.102;20.614;2023-04-16T07:03:58;11.70;99.90
20442;DHT22;10380;52.102;20.614;2023-04-16T07:06:26;11.80;99.90
20442;DHT22;10380;52.102;20.614;2023-04-16T07:08:53;11.80;99.90
20442;DHT22;10380;52.102;20.614;2023-04-16T07:11:20;11.90;99.90
20442;DHT22;10380;52.102;20.614;2023-04-16T07:13:48;11.90;99.90
20442;DHT22;10380;52.102;20.614;2023-04-16T07:16:17;11.90;99.90
20442;DHT22;10380;52.102;20.614;2023-04-16T07:18:43;12.00;99.90
20442;DHT22;10380;52.102;20.614;2023-04-16T07:21:10;12.00;99.90
20442;DHT22;10380;52.102;20.614;2023-04-16T07:23:37;12.10;99.90
20442;DHT22;10380;52.102;20.614;2023-04-16T07:26:04;12.10;99.90
20442;DHT22;10380;52.102;20.614;2023-04-16T07:28:31;12.20;99.90
20442;DHT22;10380;52.102;20.614;2023-04-16T07:30:58;12.20;99.90
20442;DHT22;10380;52.102;20.614;2023-04-16T07:33:25;12.30;99.90
20442;DHT22;10380;52.102;20.614;2023-04-16T07:35:52;12.40;99.90
20442;DHT22;10380;52.102;20.614;2023-04-16T07:38:19;12.50;99.90
20442;DHT22;10380;52.102;20.614;2023-04-16T07:40:46;12.50;99.90
20442;DHT22;10380;52.102;20.614;2023-04-16T07:43:13;12.60;99.90
20442;DHT22;10380;52.102;20.614;2023-04-16T07:45:41;12.70;99.90
20442;DHT22;10380;52.102;20.614;2023-04-16T07:48:08;12.60;99.90
20442;DHT22;10380;52.102;20.614;2023-04-16T07:50:35;12.60;99.90
20442;DHT22;10380;52.102;20.614;2023-04-16T07:53:02;12.60;99.90
20442;DHT22;10380;52.102;20.614;2023-04-16T07:55:29;12.60;99.90
20442;DHT22;10380;52.102;20.614;2023-04-16T07:57:56;12.60;99.90
20442;DHT22;10380;52.102;20.614;2023-04-16T08:00:22;12.60;99.90
20442;DHT22;10380;52.102;20.614;2023-04-16T08:02:49;12.60;99.90
20442;DHT22;10380;52.102;20.614;2023-04-16T08:05:16;12.50;99.90
20442;DHT22;10380;52.102;20.614;2023-04-16T08:07:43;12.50;99.90
20442;DHT22;10380;52.102;20.614;2023-04-16T08:10:10;12.50;99.90
20442;DHT22;10380;52.102;20.614;2023-04-16T08:12:37;12.50;99.90
20442;DHT22;10380;52.102;20.614;2023-04-16T08:15:04;12.50;99.90
20442;DHT22;10380;52.102;20.614;2023-04-16T08:17:31;12.50;99.90
20442;DHT22;10380;52.102;20.614;2023-04-16T08:20:00;12.50;99.90
20442;DHT22;10380;52.102;20.614;2023-04-16T08:22:27;12.50;99.90
20442;DHT22;10380;52.102;20.614;2023-04-16T08:24:54;12.60;99.90
20442;DHT22;10380;52.102;20.614;2023-04-16T08:27:21;12.70;99.90
20442;DHT22;10380;52.102;20.614;2023-04-16T08:29:48;12.70;99.90
20442;DHT22;10380;52.102;20.614;2023-04-16T08:32:14;12.80;99.90
20442;DHT22;10380;52.102;20.614;2023-04-16T08:34:41;12.90;99.90
20442;DHT22;10380;52.102;20.614;2023-04-16T08:37:08;12.90;99.90
20442;DHT22;10380;52.102;20.614;2023-04-16T08:39:35;13.00;99.90
20442;DHT22;10380;52.102;20.614;2023-04-16T08:42:04;13.10;99.90
20442;DHT22;10380;52.102;20.614;2023-04-16T08:44:36;13.20;99.90
20442;DHT22;10380;52.102;20.614;2023-04-16T08:47:05;13.20;99.90
20442;DHT22;10380;52.102;20.614;2023-04-16T08:49:36;13.40;99.90
20442;DHT22;10380;52.102;20.614;2023-04-16T08:52:17;13.50;99.90
20442;DHT22;10380;52.102;20.614;2023-04-16T08:55:00;13.50;99.90
20442;DHT22;10380;52.102;20.614;2023-04-16T08:57:36;13.60;99.90
20442;DHT22;10380;52.102;20.614;2023-04-16T09:00:06;13.70;99.90
20442;DHT22;10380;52.102;20.614;2023-04-16T09:02:35;13.70;99.90
20442;DHT22;10380;52.102;20.614;2023-04-16T09:05:04;13.80;99.90
20442;DHT22;10380;52.102;20.614;2023-04-16T09:07:33;13.90;99.90
20442;DHT22;10380;52.102;20.614;2023-04-16T09:10:00;14.10;99.90
20442;DHT22;10380;52.102;20.614;2023-04-16T09:12:27;14.20;99.90
20442;DHT22;10380;52.102;20.614;2023-04-16T09:14:55;14.30;99.90
20442;DHT22;10380;52.102;20.614;2023-04-16T09:17:22;14.40;99.90
20442;DHT22;10380;52.102;20.614;2023-04-16T09:19:49;14.50;99.90
20442;DHT22;10380;52.102;20.614;2023-04-16T09:22:16;14.60;99.90
20442;DHT22;10380;52.102;20.614;2023-04-16T09:24:43;14.60;99.90
20442;DHT22;10380;52.102;20.614;2023-04-16T09:27:11;14.70;99.90
20442;DHT22;10380;52.102;20.614;2023-04-16T09:29:39;14.70;99.90
20442;DHT22;10380;52.102;20.614;2023-04-16T09:32:08;14.80;99.90
20442;DHT22;10380;52.102;20.614;2023-04-16T09:34:53;15.00;99.90
20442;DHT22;10380;52.102;20.614;2023-04-16T09:37:21;15.10;99.90
20442;DHT22;10380;52.102;20.614;2023-04-16T09:40:04;15.20;99.90
20442;DHT22;10380;52.102;20.614;2023-04-16T09:42:32;15.30;99.90
20442;DHT22;10380;52.102;20.614;2023-04-16T09:44:59;15.30;99.90
20442;DHT22;10380;52.102;20.614;2023-04-16T09:47:40;15.40;99.90
20442;DHT22;10380;52.102;20.614;2023-04-16T09:50:09;15.40;99.90
20442;DHT22;10380;52.102;20.614;2023-04-16T09:52:38;15.50;99.90
20442;DHT22;10380;52.102;20.614;2023-04-16T09:55:05;15.50;99.90
20442;DHT22;10380;52.102;20.614;2023-04-16T09:57:32;15.50;99.90
20442;DHT22;10380;52.102;20.614;2023-04-16T10:00:07;15.70;99.90
20442;DHT22;10380;52.102;20.614;2023-04-16T10:02:35;15.70;99.90
20442;DHT22;10380;52.102;20.614;2023-04-16T10:05:06;15.90;99.90
20442;DHT22;10380;52.102;20.614;2023-04-16T10:07:34;15.90;99.90
20442;DHT22;10380;52.102;20.614;2023-04-16T10:10:03;15.90;99.90
20442;DHT22;10380;52.102;20.614;2023-04-16T10:12:30;15.90;99.90
20442;DHT22;10380;52.102;20.614;2023-04-16T10:14:58;16.00;99.90
20442;DHT22;10380;52.102;20.614;2023-04-16T10:17:25;16.00;99.90
20442;DHT22;10380;52.102;20.614;2023-04-16T10:19:56;16.00;99.90
20442;DHT22;10380;52.102;20.614;2023-04-16T10:22:24;16.00;99.90
20442;DHT22;10380;52.102;20.614;2023-04-16T10:24:51;16.00;99.90
20442;DHT22;10380;52.102;20.614;2023-04-16T10:27:19;15.90;99.90
20442;DHT22;10380;52.102;20.614;2023-04-16T10:29:47;15.80;99.90
20442;DHT22;10380;52.102;20.614;2023-04-16T10:32:16;15.80;99.90
20442;DHT22;10380;52.102;20.614;2023-04-16T10:34:44;15.70;99.90
20442;DHT22;10380;52.102;20.614;2023-04-16T10:37:11;15.70;99.90
20442;DHT22;10380;52.102;20.614;2023-04-16T10:39:38;15.70;99.90
20442;DHT22;10380;52.102;20.614;2023-04-16T10:42:09;15.70;99.90
20442;DHT22;10380;52.102;20.614;2023-04-16T10:44:38;15.70;99.90
20442;DHT22;10380;52.102;20.614;2023-04-16T10:47:11;15.80;99.90
20442;DHT22;10380;52.102;20.614;2023-04-16T10:49:39;15.80;99.90
20442;DHT22;10380;52.102;20.614;2023-04-16T10:52:12;15.90;99.90
20442;DHT22;10380;52.102;20.614;2023-04-16T10:54:40;16.00;99.90
20442;DHT22;10380;52.102;20.614;2023-04-16T10:57:09;16.10;99.90
20442;DHT22;10380;52.102;20.614;2023-04-16T10:59:37;16.30;99.90
20442;DHT22;10380;52.102;20.614;2023-04-16T11:02:14;16.40;99.90
20442;DHT22;10380;52.102;20.614;2023-04-16T11:04:43;16.50;99.90
20442;DHT22;10380;52.102;20.614;2023-04-16T11:12:39;16.70;99.90
20442;DHT22;10380;52.102;20.614;2023-04-16T11:15:16;16.80;99.90
20442;DHT22;10380;52.102;20.614;2023-04-16T11:17:49;16.80;99.90
20442;DHT22;10380;52.102;20.614;2023-04-16T11:20:25;16.90;99.90
20442;DHT22;10380;52.102;20.614;2023-04-16T11:22:54;16.80;99.90
20442;DHT22;10380;52.102;20.614;2023-04-16T11:25:26;16.80;99.90
20442;DHT22;10380;52.102;20.614;2023-04-16T11:27:55;16.70;99.90
20442;DHT22;10380;52.102;20.614;2023-04-16T11:30:35;16.60;99.90
20442;DHT22;10380;52.102;20.614;2023-04-16T11:33:11;16.50;99.90
20442;DHT22;10380;52.102;20.614;2023-04-16T11:35:38;16.50;99.90
20442;DHT22;10380;52.102;20.614;2023-04-16T11:38:06;16.50;99.90
20442;DHT22;10380;52.102;20.614;2023-04-16T11:40:33;16.50;99.90
20442;DHT22;10380;52.102;20.614;2023-04-16T11:43:01;16.40;99.90
20442;DHT22;10380;52.102;20.614;2023-04-16T11:45:29;16.30;99.90
20442;DHT22;10380;52.102;20.614;2023-04-16T11:47:56;16.30;99.90
20442;DHT22;10380;52.102;20.614;2023-04-16T11:50:24;16.20;99.90
20442;DHT22;10380;52.102;20.614;2023-04-16T11:52:54;16.20;99.90
20442;DHT22;10380;52.102;20.614;2023-04-16T11:55:22;16.20;99.90
20442;DHT22;10380;52.102;20.614;2023-04-16T11:57:49;16.10;99.90
20442;DHT22;10380;52.102;20.614;2023-04-16T12:00:18;16.00;99.90
20442;DHT22;10380;52.102;20.614;2023-04-16T12:02:51;15.80;99.90
20442;DHT22;10380;52.102;20.614;2023-04-16T12:05:27;15.80;99.90
20442;DHT22;10380;52.102;20.614;2023-04-16T12:07:57;15.90;99.90
20442;DHT22;10380;52.102;20.614;2023-04-16T12:10:25;15.90;99.90
20442;DHT22;10380;52.102;20.614;2023-04-16T12:12:52;16.10;99.90
20442;DHT22;10380;52.102;20.614;2023-04-16T12:15:19;16.30;99.90
20442;DHT22;10380;52.102;20.614;2023-04-16T12:17:46;16.50;99.90
20442;DHT22;10380;52.102;20.614;2023-04-16T12:20:14;16.70;99.90
20442;DHT22;10380;52.102;20.614;2023-04-16T12:22:46;16.90;99.90
20442;DHT22;10380;52.102;20.614;2023-04-16T12:25:15;17.10;99.90
20442;DHT22;10380;52.102;20.614;2023-04-16T12:27:48;17.20;99.90
20442;DHT22;10380;52.102;20.614;2023-04-16T12:30:21;17.40;99.90
20442;DHT22;10380;52.102;20.614;2023-04-16T12:32:50;17.50;99.90
20442;DHT22;10380;52.102;20.614;2023-04-16T12:35:36;17.50;99.90
20442;DHT22;10380;52.102;20.614;2023-04-16T12:38:02;17.50;99.90
20442;DHT22;10380;52.102;20.614;2023-04-16T12:40:29;17.50;99.90
20442;DHT22;10380;52.102;20.614;2023-04-16T12:42:56;17.40;99.90
20442;DHT22;10380;52.102;20.614;2023-04-16T12:45:23;17.30;99.90
20442;DHT22;10380;52.102;20.614;2023-04-16T12:47:50;17.20;99.90
20442;DHT22;10380;52.102;20.614;2023-04-16T12:50:17;17.20;99.90
20442;DHT22;10380;52.102;20.614;2023-04-16T12:52:44;17.20;99.90
20442;DHT22;10380;52.102;20.614;2023-04-16T12:55:11;17.40;99.90
20442;DHT22;10380;52.102;20.614;2023-04-16T12:57:38;17.80;99.90
20442;DHT22;10380;52.102;20.614;2023-04-16T13:00:05;18.50;99.90
20442;DHT22;10380;52.102;20.614;2023-04-16T13:02:33;19.40;99.90
20442;DHT22;10380;52.102;20.614;2023-04-16T13:05:00;20.00;99.90
20442;DHT22;10380;52.102;20.614;2023-04-16T13:07:28;19.90;99.90
20442;DHT22;10380;52.102;20.614;2023-04-16T13:09:57;19.50;99.90
20442;DHT22;10380;52.102;20.614;2023-04-16T13:12:24;19.10;99.90
20442;DHT22;10380;52.102;20.614;2023-04-16T13:14:50;18.50;99.90
20442;DHT22;10380;52.102;20.614;2023-04-16T13:17:17;18.00;99.90
20442;DHT22;10380;52.102;20.614;2023-04-16T13:19:44;17.60;99.90
20442;DHT22;10380;52.102;20.614;2023-04-16T13:22:11;17.40;99.90
20442;DHT22;10380;52.102;20.614;2023-04-16T13:24:38;17.20;99.90
20442;DHT22;10380;52.102;20.614;2023-04-16T13:27:05;16.90;99.90
20442;DHT22;10380;52.102;20.614;2023-04-16T13:29:33;16.50;99.90
20442;DHT22;10380;52.102;20.614;2023-04-16T13:32:03;16.60;99.90
20442;DHT22;10380;52.102;20.614;2023-04-16T13:34:31;16.90;99.90
20442;DHT22;10380;52.102;20.614;2023-04-16T13:36:58;17.10;99.90
20442;DHT22;10380;52.102;20.614;2023-04-16T13:39:24;17.30;99.90
20442;DHT22;10380;52.102;20.614;2023-04-16T13:41:51;17.50;99.90
20442;DHT22;10380;52.102;20.614;2023-04-16T13:44:18;17.60;99.90
20442;DHT22;10380;52.102;20.614;2023-04-16T13:46:46;17.70;99.90
20442;DHT22;10380;52.102;20.614;2023-04-16T13:49:16;17.60;99.90
20442;DHT22;10380;52.102;20.614;2023-04-16T13:51:44;17.30;99.90
20442;DHT22;10380;52.102;20.614;2023-04-16T13:54:11;17.00;99.90
20442;DHT22;10380;52.102;20.614;2023-04-16T13:56:39;16.70;99.90
20442;DHT22;10380;52.102;20.614;2023-04-16T13:59:09;16.70;99.90
20442;DHT22;10380;52.102;20.614;2023-04-16T14:01:44;16.70;99.90
20442;DHT22;10380;52.102;20.614;2023-04-16T14:04:11;16.70;99.90
20442;DHT22;10380;52.102;20.614;2023-04-16T14:06:38;16.70;99.90
20442;DHT22;10380;52.102;20.614;2023-04-16T14:09:08;16.70;99.90
20442;DHT22;10380;52.102;20.614;2023-04-16T14:11:37;16.70;99.90
20442;DHT22;10380;52.102;20.614;2023-04-16T14:14:05;16.60;99.90
20442;DHT22;10380;52.102;20.614;2023-04-16T14:16:35;16.60;99.90
20442;DHT22;10380;52.102;20.614;2023-04-16T14:19:03;16.20;99.90
20442;DHT22;10380;52.102;20.614;2023-04-16T14:21:30;15.90;99.90
20442;DHT22;10380;52.102;20.614;2023-04-16T14:23:57;15.60;99.90
20442;DHT22;10380;52.102;20.614;2023-04-16T14:26:24;15.50;99.90
20442;DHT22;10380;52.102;20.614;2023-04-16T14:28:52;15.20;99.90
20442;DHT22;10380;52.102;20.614;2023-04-16T14:31:18;15.10;99.90
20442;DHT22;10380;52.102;20.614;2023-04-16T14:33:47;15.20;99.90
20442;DHT22;10380;52.102;20.614;2023-04-16T14:36:14;15.30;99.90
20442;DHT22;10380;52.102;20.614;2023-04-16T14:38:41;15.60;99.90
20442;DHT22;10380;52.102;20.614;2023-04-16T14:41:11;15.80;99.90
20442;DHT22;10380;52.102;20.614;2023-04-16T14:43:38;16.00;99.90
20442;DHT22;10380;52.102;20.614;2023-04-16T14:46:07;16.40;99.90
20442;DHT22;10380;52.102;20.614;2023-04-16T14:48:34;16.80;99.90
20442;DHT22;10380;52.102;20.614;2023-04-16T14:51:01;17.20;99.90
20442;DHT22;10380;52.102;20.614;2023-04-16T14:53:28;17.40;99.90
20442;DHT22;10380;52.102;20.614;2023-04-16T14:55:55;17.60;99.90
20442;DHT22;10380;52.102;20.614;2023-04-16T14:58:25;17.90;99.90
20442;DHT22;10380;52.102;20.614;2023-04-16T15:00:52;17.80;99.90
20442;DHT22;10380;52.102;20.614;2023-04-16T15:03:19;17.90;99.90
20442;DHT22;10380;52.102;20.614;2023-04-16T15:05:51;18.10;99.90
20442;DHT22;10380;52.102;20.614;2023-04-16T15:08:23;18.20;99.90
20442;DHT22;10380;52.102;20.614;2023-04-16T15:10:50;18.50;99.90
20442;DHT22;10380;52.102;20.614;2023-04-16T15:13:17;18.40;99.90
20442;DHT22;10380;52.102;20.614;2023-04-16T15:15:46;18.50;99.90
20442;DHT22;10380;52.102;20.614;2023-04-16T15:18:13;18.60;99.90
20442;DHT22;10380;52.102;20.614;2023-04-16T15:20:40;18.70;99.90
20442;DHT22;10380;52.102;20.614;2023-04-16T15:23:07;18.70;99.90
20442;DHT22;10380;52.102;20.614;2023-04-16T15:25:34;18.70;99.90
20442;DHT22;10380;52.102;20.614;2023-04-16T15:28:03;18.90;99.90
20442;DHT22;10380;52.102;20.614;2023-04-16T15:30:33;19.00;99.90